sensor_id;sensor_type;location;lat;lon;timestamp;P1;durP1;ratioP1;P2;durP2;ratioP2
75087;SDS011;63664;44.868;40.600;2023-03-17T00:01:20;33.13;;;14.80;;
75087;SDS011;63664;44.868;40.600;2023-03-17T00:03:51;22.42;;;13.68;;
75087;SDS011;63664;44.868;40.600;2023-03-17T00:06:20;31.00;;;13.52;;
75087;SDS011;63664;44.868;40.600;2023-03-17T00:08:55;26.15;;;12.77;;
75087;SDS011;63664;44.868;40.600;2023-03-17T00:11:22;31.42;;;13.65;;
75087;SDS011;63664;44.868;40.600;2023-03-17T00:13:50;29.30;;;13.77;;
75087;SDS011;63664;44.868;40.600;2023-03-17T00:16:21;29.60;;;14.40;;
75087;SDS011;63664;44.868;40.600;2023-03-17T00:18:52;26.08;;;14.13;;
75087;SDS011;63664;44.868;40.600;2023-03-17T00:21:29;28.95;;;12.82;;
75087;SDS011;63664;44.868;40.600;2023-03-17T00:24:00;23.13;;;13.40;;
75087;SDS011;63664;44.868;40.600;2023-03-17T00:26:29;25.50;;;13.98;;
75087;SDS011;63664;44.868;40.600;2023-03-17T00:28:56;28.08;;;14.10;;
75087;SDS011;63664;44.868;40.600;2023-03-17T00:31:23;28.67;;;14.80;;
75087;SDS011;63664;44.868;40.600;2023-03-17T00:33:54;28.30;;;13.77;;
75087;SDS011;63664;44.868;40.600;2023-03-17T00:36:30;30.73;;;14.48;;
75087;SDS011;63664;44.868;40.600;2023-03-17T00:38:58;29.42;;;15.10;;
75087;SDS011;63664;44.868;40.600;2023-03-17T00:41:24;26.70;;;13.90;;
75087;SDS011;63664;44.868;40.600;2023-03-17T00:43:51;28.52;;;13.60;;
75087;SDS011;63664;44.868;40.600;2023-03-17T00:46:27;26.30;;;13.90;;
75087;SDS011;63664;44.868;40.600;2023-03-17T00:49:09;32.22;;;13.48;;
75087;SDS011;63664;44.868;40.600;2023-03-17T00:51:48;42.33;;;14.77;;
75087;SDS011;63664;44.868;40.600;2023-03-17T00:54:18;30.10;;;14.68;;
75087;SDS011;63664;44.868;40.600;2023-03-17T00:56:45;33.50;;;16.40;;
75087;SDS011;63664;44.868;40.600;2023-03-17T00:59:16;29.38;;;15.63;;
75087;SDS011;63664;44.868;40.600;2023-03-17T01:02:02;28.40;;;14.50;;
75087;SDS011;63664;44.868;40.600;2023-03-17T01:04:34;30.13;;;15.07;;
75087;SDS011;63664;44.868;40.600;2023-03-17T01:07:06;29.88;;;15.02;;
75087;SDS011;63664;44.868;40.600;2023-03-17T01:09:36;29.67;;;15.63;;
75087;SDS011;63664;44.868;40.600;2023-03-17T01:12:05;31.85;;;16.65;;
75087;SDS011;63664;44.868;40.600;2023-03-17T01:14:39;30.40;;;16.58;;
75087;SDS011;63664;44.868;40.600;2023-03-17T01:17:15;30.67;;;15.60;;
75087;SDS011;63664;44.868;40.600;2023-03-17T01:19:43;28.60;;;15.02;;
75087;SDS011;63664;44.868;40.600;2023-03-17T01:22:11;31.58;;;16.08;;
75087;SDS011;63664;44.868;40.600;2023-03-17T01:24:38;30.83;;;15.88;;
75087;SDS011;63664;44.868;40.600;2023-03-17T01:27:12;30.10;;;14.82;;
75087;SDS011;63664;44.868;40.600;2023-03-17T01:29:39;32.42;;;15.02;;
75087;SDS011;63664;44.868;40.600;2023-03-17T01:32:07;31.63;;;16.88;;
75087;SDS011;63664;44.868;40.600;2023-03-17T01:34:36;30.70;;;16.30;;
75087;SDS011;63664;44.868;40.600;2023-03-17T01:37:02;32.40;;;15.50;;
75087;SDS011;63664;44.868;40.600;2023-03-17T01:39:31;32.17;;;15.40;;
75087;SDS011;63664;44.868;40.600;2023-03-17T01:41:58;32.63;;;16.45;;
75087;SDS011;63664;44.868;40.600;2023-03-17T01:44:28;30.92;;;15.77;;
75087;SDS011;63664;44.868;40.600;2023-03-17T01:46:56;29.40;;;16.40;;
75087;SDS011;63664;44.868;40.600;2023-03-17T01:49:26;32.97;;;16.90;;
75087;SDS011;63664;44.868;40.600;2023-03-17T01:52:10;34.88;;;17.50;;
75087;SDS011;63664;44.868;40.600;2023-03-17T01:54:53;36.40;;;18.27;;
75087;SDS011;63664;44.868;40.600;2023-03-17T01:57:46;37.25;;;18.65;;
75087;SDS011;63664;44.868;40.600;2023-03-17T02:00:19;34.67;;;17.25;;
75087;SDS011;63664;44.868;40.600;2023-03-17T02:02:52;40.65;;;20.58;;
75087;SDS011;63664;44.868;40.600;2023-03-17T02:05:24;36.45;;;19.85;;
75087;SDS011;63664;44.868;40.600;2023-03-17T02:07:55;45.97;;;22.08;;
75087;SDS011;63664;44.868;40.600;2023-03-17T02:10:30;35.42;;;19.45;;
75087;SDS011;63664;44.868;40.600;2023-03-17T02:12:57;46.15;;;20.45;;
75087;SDS011;63664;44.868;40.600;2023-03-17T02:15:38;39.67;;;20.17;;
75087;SDS011;63664;44.868;40.600;2023-03-17T02:18:11;40.20;;;20.20;;
75087;SDS011;63664;44.868;40.600;2023-03-17T02:23:05;42.50;;;20.77;;
75087;SDS011;63664;44.868;40.600;2023-03-17T02:25:38;41.10;;;20.77;;
75087;SDS011;63664;44.868;40.600;2023-03-17T02:28:14;38.58;;;20.02;;
75087;SDS011;63664;44.868;40.600;2023-03-17T02:30:48;46.92;;;22.15;;
75087;SDS011;63664;44.868;40.600;2023-03-17T02:33:16;39.65;;;20.30;;
75087;SDS011;63664;44.868;40.600;2023-03-17T02:35:46;38.05;;;19.40;;
75087;SDS011;63664;44.868;40.600;2023-03-17T02:38:15;37.80;;;20.20;;
75087;SDS011;63664;44.868;40.600;2023-03-17T02:40:42;41.15;;;20.05;;
75087;SDS011;63664;44.868;40.600;2023-03-17T02:43:10;38.50;;;20.45;;
75087;SDS011;63664;44.868;40.600;2023-03-17T02:45:36;38.65;;;19.00;;
75087;SDS011;63664;44.868;40.600;2023-03-17T02:48:05;40.60;;;20.17;;
75087;SDS011;63664;44.868;40.600;2023-03-17T02:50:33;40.13;;;19.85;;
75087;SDS011;63664;44.868;40.600;2023-03-17T02:53:02;38.28;;;19.50;;
75087;SDS011;63664;44.868;40.600;2023-03-17T02:55:28;40.35;;;19.73;;
75087;SDS011;63664;44.868;40.600;2023-03-17T02:57:54;35.08;;;18.90;;
75087;SDS011;63664;44.868;40.600;2023-03-17T03:00:23;40.00;;;20.38;;
75087;SDS011;63664;44.868;40.600;2023-03-17T03:02:51;44.20;;;21.33;;
75087;SDS011;63664;44.868;40.600;2023-03-17T03:05:20;37.45;;;19.60;;
75087;SDS011;63664;44.868;40.600;2023-03-17T03:07:47;38.35;;;18.85;;
75087;SDS011;63664;44.868;40.600;2023-03-17T03:10:13;43.85;;;20.80;;
75087;SDS011;63664;44.868;40.600;2023-03-17T03:12:45;34.83;;;18.70;;
75087;SDS011;63664;44.868;40.600;2023-03-17T03:15:12;42.10;;;19.25;;
75087;SDS011;63664;44.868;40.600;2023-03-17T03:17:39;42.47;;;19.70;;
75087;SDS011;63664;44.868;40.600;2023-03-17T03:20:06;42.20;;;19.92;;
75087;SDS011;63664;44.868;40.600;2023-03-17T03:22:35;42.42;;;20.88;;
75087;SDS011;63664;44.868;40.600;2023-03-17T03:25:02;41.90;;;20.40;;
75087;SDS011;63664;44.868;40.600;2023-03-17T03:27:28;39.75;;;19.95;;
75087;SDS011;63664;44.868;40.600;2023-03-17T03:29:57;45.50;;;22.13;;
75087;SDS011;63664;44.868;40.600;2023-03-17T03:32:24;45.42;;;22.65;;
75087;SDS011;63664;44.868;40.600;2023-03-17T03:34:50;45.17;;;23.00;;
75087;SDS011;63664;44.868;40.600;2023-03-17T03:37:17;44.80;;;21.98;;
75087;SDS011;63664;44.868;40.600;2023-03-17T03:39:46;53.85;;;24.25;;
75087;SDS011;63664;44.868;40.600;2023-03-17T03:42:15;41.45;;;24.08;;
75087;SDS011;63664;44.868;40.600;2023-03-17T03:44:41;52.00;;;24.92;;
75087;SDS011;63664;44.868;40.600;2023-03-17T03:47:07;49.88;;;25.77;;
75087;SDS011;63664;44.868;40.600;2023-03-17T03:49:34;48.10;;;25.00;;
75087;SDS011;63664;44.868;40.600;2023-03-17T03:52:00;48.35;;;25.25;;
75087;SDS011;63664;44.868;40.600;2023-03-17T03:54:27;43.72;;;23.83;;
75087;SDS011;63664;44.868;40.600;2023-03-17T03:56:53;48.47;;;24.25;;
75087;SDS011;63664;44.868;40.600;2023-03-17T03:59:19;47.75;;;24.33;;
75087;SDS011;63664;44.868;40.600;2023-03-17T04:01:48;44.70;;;22.80;;
75087;SDS011;63664;44.868;40.600;2023-03-17T04:04:20;43.85;;;22.13;;
75087;SDS011;63664;44.868;40.600;2023-03-17T04:06:47;41.53;;;21.42;;
75087;SDS011;63664;44.868;40.600;2023-03-17T04:09:18;41.40;;;21.05;;
75087;SDS011;63664;44.868;40.600;2023-03-17T04:11:45;43.70;;;22.33;;
75087;SDS011;63664;44.868;40.600;2023-03-17T04:14:14;44.90;;;21.90;;
75087;SDS011;63664;44.868;40.600;2023-03-17T04:16:41;47.72;;;21.88;;
75087;SDS011;63664;44.868;40.600;2023-03-17T04:19:09;48.58;;;21.90;;
75087;SDS011;63664;44.868;40.600;2023-03-17T04:21:40;45.67;;;20.38;;
75087;SDS011;63664;44.868;40.600;2023-03-17T04:24:10;43.53;;;21.83;;
75087;SDS011;63664;44.868;40.600;2023-03-17T04:26:39;42.63;;;19.98;;
75087;SDS011;63664;44.868;40.600;2023-03-17T04:29:08;45.88;;;20.88;;
75087;SDS011;63664;44.868;40.600;2023-03-17T04:31:40;46.65;;;22.48;;
75087;SDS011;63664;44.868;40.600;2023-03-17T04:34:15;39.60;;;20.52;;
75087;SDS011;63664;44.868;40.600;2023-03-17T04:36:46;44.70;;;21.38;;
75087;SDS011;63664;44.868;40.600;2023-03-17T04:39:13;48.55;;;21.98;;
75087;SDS011;63664;44.868;40.600;2023-03-17T04:41:41;46.60;;;21.05;;
75087;SDS011;63664;44.868;40.600;2023-03-17T04:44:07;42.03;;;20.50;;
75087;SDS011;63664;44.868;40.600;2023-03-17T04:46:33;48.13;;;22.23;;
75087;SDS011;63664;44.868;40.600;2023-03-17T04:49:00;44.58;;;20.77;;
75087;SDS011;63664;44.868;40.600;2023-03-17T04:51:29;45.65;;;23.02;;
75087;SDS011;63664;44.868;40.600;2023-03-17T04:53:58;43.50;;;20.88;;
75087;SDS011;63664;44.868;40.600;2023-03-17T04:56:29;49.58;;;22.45;;
75087;SDS011;63664;44.868;40.600;2023-03-17T06:53:35;37.75;;;19.30;;
75087;SDS011;63664;44.868;40.600;2023-03-17T06:56:02;36.90;;;18.23;;
75087;SDS011;63664;44.868;40.600;2023-03-17T06:58:32;39.60;;;20.13;;
75087;SDS011;63664;44.868;40.600;2023-03-17T07:01:01;36.55;;;18.98;;
75087;SDS011;63664;44.868;40.600;2023-03-17T07:03:30;38.90;;;19.52;;
75087;SDS011;63664;44.868;40.600;2023-03-17T07:05:59;40.63;;;19.48;;
75087;SDS011;63664;44.868;40.600;2023-03-17T07:08:25;39.40;;;20.15;;
75087;SDS011;63664;44.868;40.600;2023-03-17T07:10:55;40.30;;;20.05;;
75087;SDS011;63664;44.868;40.600;2023-03-17T07:13:22;43.15;;;19.45;;
75087;SDS011;63664;44.868;40.600;2023-03-17T07:15:53;41.17;;;19.52;;
75087;SDS011;63664;44.868;40.600;2023-03-17T07:18:20;43.85;;;20.23;;
75087;SDS011;63664;44.868;40.600;2023-03-17T07:20:50;43.88;;;20.40;;
75087;SDS011;63664;44.868;40.600;2023-03-17T07:23:20;38.10;;;19.02;;
75087;SDS011;63664;44.868;40.600;2023-03-17T07:25:47;44.45;;;21.02;;
75087;SDS011;63664;44.868;40.600;2023-03-17T07:28:14;44.95;;;20.85;;
75087;SDS011;63664;44.868;40.600;2023-03-17T07:30:41;45.88;;;20.92;;
75087;SDS011;63664;44.868;40.600;2023-03-17T07:33:12;44.15;;;19.70;;
75087;SDS011;63664;44.868;40.600;2023-03-17T07:35:39;48.75;;;21.60;;
75087;SDS011;63664;44.868;40.600;2023-03-17T07:38:06;47.10;;;21.08;;
75087;SDS011;63664;44.868;40.600;2023-03-17T07:40:32;47.80;;;21.40;;
75087;SDS011;63664;44.868;40.600;2023-03-17T07:43:01;47.00;;;22.13;;
75087;SDS011;63664;44.868;40.600;2023-03-17T07:45:31;46.80;;;19.85;;
75087;SDS011;63664;44.868;40.600;2023-03-17T07:47:59;47.60;;;21.60;;
75087;SDS011;63664;44.868;40.600;2023-03-17T07:50:30;55.33;;;23.23;;
75087;SDS011;63664;44.868;40.600;2023-03-17T07:52:58;54.88;;;23.23;;
75087;SDS011;63664;44.868;40.600;2023-03-17T07:55:24;59.92;;;24.85;;
75087;SDS011;63664;44.868;40.600;2023-03-17T07:57:51;51.65;;;21.33;;
75087;SDS011;63664;44.868;40.600;2023-03-17T08:00:20;64.05;;;24.88;;
75087;SDS011;63664;44.868;40.600;2023-03-17T08:02:48;64.35;;;23.85;;
75087;SDS011;63664;44.868;40.600;2023-03-17T08:05:18;59.95;;;25.45;;
75087;SDS011;63664;44.868;40.600;2023-03-17T08:07:48;64.68;;;25.15;;
75087;SDS011;63664;44.868;40.600;2023-03-17T08:10:14;68.70;;;25.50;;
75087;SDS011;63664;44.868;40.600;2023-03-17T08:12:41;63.20;;;25.35;;
75087;SDS011;63664;44.868;40.600;2023-03-17T08:15:09;72.75;;;28.17;;
75087;SDS011;63664;44.868;40.600;2023-03-17T08:17:41;69.40;;;27.30;;
75087;SDS011;63664;44.868;40.600;2023-03-17T08:20:10;71.45;;;27.73;;
75087;SDS011;63664;44.868;40.600;2023-03-17T08:22:36;88.10;;;30.05;;
75087;SDS011;63664;44.868;40.600;2023-03-17T08:25:11;66.88;;;27.48;;
75087;SDS011;63664;44.868;40.600;2023-03-17T08:27:37;73.72;;;29.33;;
75087;SDS011;63664;44.868;40.600;2023-03-17T08:30:04;73.35;;;28.30;;
75087;SDS011;63664;44.868;40.600;2023-03-17T08:32:31;81.45;;;28.70;;
75087;SDS011;63664;44.868;40.600;2023-03-17T08:34:59;74.38;;;26.30;;
75087;SDS011;63664;44.868;40.600;2023-03-17T08:37:26;71.55;;;26.50;;
75087;SDS011;63664;44.868;40.600;2023-03-17T08:39:52;71.75;;;27.38;;
75087;SDS011;63664;44.868;40.600;2023-03-17T08:42:18;62.58;;;26.85;;
75087;SDS011;63664;44.868;40.600;2023-03-17T08:44:45;69.47;;;26.73;;
75087;SDS011;63664;44.868;40.600;2023-03-17T08:47:14;63.90;;;26.25;;
75087;SDS011;63664;44.868;40.600;2023-03-17T08:49:42;69.80;;;27.23;;
75087;SDS011;63664;44.868;40.600;2023-03-17T08:52:09;69.55;;;26.85;;
75087;SDS011;63664;44.868;40.600;2023-03-17T08:54:36;68.13;;;26.95;;
75087;SDS011;63664;44.868;40.600;2023-03-17T08:57:05;59.70;;;25.70;;
75087;SDS011;63664;44.868;40.600;2023-03-17T08:59:32;64.70;;;26.02;;
75087;SDS011;63664;44.868;40.600;2023-03-17T09:01:58;65.10;;;24.60;;
75087;SDS011;63664;44.868;40.600;2023-03-17T09:04:30;65.93;;;26.00;;
75087;SDS011;63664;44.868;40.600;2023-03-17T09:06:59;58.97;;;24.17;;
75087;SDS011;63664;44.868;40.600;2023-03-17T09:09:28;58.42;;;23.95;;
75087;SDS011;63664;44.868;40.600;2023-03-17T09:11:58;51.67;;;21.98;;
75087;SDS011;63664;44.868;40.600;2023-03-17T09:14:24;60.80;;;24.30;;
75087;SDS011;63664;44.868;40.600;2023-03-17T09:21:49;64.22;;;24.38;;
75087;SDS011;63664;44.868;40.600;2023-03-17T09:24:20;61.17;;;23.83;;
75087;SDS011;63664;44.868;40.600;2023-03-17T09:26:50;61.58;;;25.27;;
75087;SDS011;63664;44.868;40.600;2023-03-17T09:29:18;63.53;;;25.27;;
75087;SDS011;63664;44.868;40.600;2023-03-17T09:31:47;63.05;;;25.83;;
75087;SDS011;63664;44.868;40.600;2023-03-17T09:34:13;66.80;;;25.38;;
75087;SDS011;63664;44.868;40.600;2023-03-17T09:36:42;70.95;;;27.30;;
75087;SDS011;63664;44.868;40.600;2023-03-17T09:39:11;67.88;;;26.15;;
75087;SDS011;63664;44.868;40.600;2023-03-17T09:41:55;60.60;;;25.92;;
75087;SDS011;63664;44.868;40.600;2023-03-17T09:44:37;62.55;;;24.45;;
75087;SDS011;63664;44.868;40.600;2023-03-17T09:49:49;60.70;;;24.05;;
75087;SDS011;63664;44.868;40.600;2023-03-17T09:52:23;62.28;;;25.80;;
75087;SDS011;63664;44.868;40.600;2023-03-17T09:55:03;62.03;;;25.50;;
75087;SDS011;63664;44.868;40.600;2023-03-17T09:57:34;62.83;;;25.30;;
75087;SDS011;63664;44.868;40.600;2023-03-17T10:00:12;65.97;;;25.73;;
75087;SDS011;63664;44.868;40.600;2023-03-17T10:02:42;67.70;;;26.17;;
75087;SDS011;63664;44.868;40.600;2023-03-17T10:05:16;61.83;;;24.77;;
75087;SDS011;63664;44.868;40.600;2023-03-17T10:10:44;65.82;;;27.00;;
75087;SDS011;63664;44.868;40.600;2023-03-17T10:13:18;68.80;;;28.00;;
75087;SDS011;63664;44.868;40.600;2023-03-17T10:18:52;68.03;;;26.85;;
75087;SDS011;63664;44.868;40.600;2023-03-17T10:21:37;59.25;;;27.40;;
75087;SDS011;63664;44.868;40.600;2023-03-17T10:24:16;61.55;;;28.48;;
75087;SDS011;63664;44.868;40.600;2023-03-17T10:26:54;65.82;;;29.25;;
75087;SDS011;63664;44.868;40.600;2023-03-17T10:29:24;60.92;;;25.23;;
75087;SDS011;63664;44.868;40.600;2023-03-17T10:31:51;63.45;;;28.80;;
75087;SDS011;63664;44.868;40.600;2023-03-17T10:34:31;62.40;;;28.00;;
75087;SDS011;63664;44.868;40.600;2023-03-17T10:37:00;63.67;;;26.90;;
75087;SDS011;63664;44.868;40.600;2023-03-17T10:39:41;61.47;;;26.50;;
75087;SDS011;63664;44.868;40.600;2023-03-17T10:42:15;58.05;;;27.40;;
75087;SDS011;63664;44.868;40.600;2023-03-17T10:44:55;59.40;;;26.95;;
75087;SDS011;63664;44.868;40.600;2023-03-17T10:47:45;55.97;;;26.73;;
75087;SDS011;63664;44.868;40.600;2023-03-17T10:52:40;62.00;;;27.75;;
75087;SDS011;63664;44.868;40.600;2023-03-17T10:55:10;56.97;;;25.98;;
75087;SDS011;63664;44.868;40.600;2023-03-17T10:57:56;57.28;;;27.33;;
75087;SDS011;63664;44.868;40.600;2023-03-17T11:00:28;53.45;;;27.15;;
75087;SDS011;63664;44.868;40.600;2023-03-17T11:03:03;59.03;;;27.30;;
75087;SDS011;63664;44.868;40.600;2023-03-17T11:05:59;51.97;;;23.90;;
75087;SDS011;63664;44.868;40.600;2023-03-17T11:08:32;50.20;;;25.33;;
75087;SDS011;63664;44.868;40.600;2023-03-17T11:11:27;48.65;;;25.60;;
75087;SDS011;63664;44.868;40.600;2023-03-17T11:14:03;55.70;;;26.67;;
75087;SDS011;63664;44.868;40.600;2023-03-17T11:16:39;57.30;;;25.40;;
75087;SDS011;63664;44.868;40.600;2023-03-17T11:19:23;49.28;;;25.15;;
75087;SDS011;63664;44.868;40.600;2023-03-17T11:22:03;52.70;;;23.63;;
75087;SDS011;63664;44.868;40.600;2023-03-17T11:27:33;48.00;;;23.08;;
75087;SDS011;63664;44.868;40.600;2023-03-17T11:30:15;43.17;;;22.73;;
75087;SDS011;63664;44.868;40.600;2023-03-17T11:39:22;45.95;;;23.25;;
75087;SDS011;63664;44.868;40.600;2023-03-17T11:41:59;41.60;;;21.45;;
75087;SDS011;63664;44.868;40.600;2023-03-17T11:44:47;47.03;;;22.27;;
75087;SDS011;63664;44.868;40.600;2023-03-17T11:56:04;48.03;;;23.05;;
75087;SDS011;63664;44.868;40.600;2023-03-17T11:58:40;46.92;;;23.98;;
75087;SDS011;63664;44.868;40.600;2023-03-17T12:01:15;44.17;;;22.30;;
75087;SDS011;63664;44.868;40.600;2023-03-17T12:07:00;52.15;;;24.15;;
75087;SDS011;63664;44.868;40.600;2023-03-17T12:09:41;52.22;;;24.85;;
75087;SDS011;63664;44.868;40.600;2023-03-17T12:12:12;54.13;;;24.00;;
75087;SDS011;63664;44.868;40.600;2023-03-17T12:14:42;53.92;;;23.77;;
75087;SDS011;63664;44.868;40.600;2023-03-17T12:17:19;45.67;;;23.42;;
75087;SDS011;63664;44.868;40.600;2023-03-17T12:22:49;48.25;;;22.25;;
75087;SDS011;63664;44.868;40.600;2023-03-17T12:28:29;43.80;;;22.75;;
75087;SDS011;63664;44.868;40.600;2023-03-17T12:31:06;43.50;;;21.42;;
75087;SDS011;63664;44.868;40.600;2023-03-17T12:36:43;42.15;;;21.13;;
75087;SDS011;63664;44.868;40.600;2023-03-17T12:39:11;47.20;;;21.88;;
75087;SDS011;63664;44.868;40.600;2023-03-17T12:44:56;41.60;;;20.38;;
75087;SDS011;63664;44.868;40.600;2023-03-17T13:08:15;40.15;;;20.20;;
75087;SDS011;63664;44.868;40.600;2023-03-17T13:11:24;41.40;;;19.48;;
75087;SDS011;63664;44.868;40.600;2023-03-17T13:14:15;44.53;;;20.23;;
75087;SDS011;63664;44.868;40.600;2023-03-17T13:17:01;38.38;;;19.58;;
75087;SDS011;63664;44.868;40.600;2023-03-17T13:19:31;43.85;;;20.77;;
75087;SDS011;63664;44.868;40.600;2023-03-17T13:27:10;55.28;;;26.38;;
75087;SDS011;63664;44.868;40.600;2023-03-17T13:29:58;42.72;;;20.23;;
75087;SDS011;63664;44.868;40.600;2023-03-17T13:32:53;60.42;;;24.88;;
75087;SDS011;63664;44.868;40.600;2023-03-17T13:35:25;43.58;;;21.25;;
75087;SDS011;63664;44.868;40.600;2023-03-17T13:40:48;35.22;;;19.08;;
75087;SDS011;63664;44.868;40.600;2023-03-17T13:51:43;33.30;;;17.80;;
75087;SDS011;63664;44.868;40.600;2023-03-17T13:54:28;38.22;;;19.17;;
75087;SDS011;63664;44.868;40.600;2023-03-17T13:56:58;31.38;;;18.35;;
75087;SDS011;63664;44.868;40.600;2023-03-17T13:59:52;39.90;;;19.25;;
75087;SDS011;63664;44.868;40.600;2023-03-17T14:53:04;34.03;;;18.42;;
75087;SDS011;63664;44.868;40.600;2023-03-17T14:55:40;41.20;;;21.05;;
75087;SDS011;63664;44.868;40.600;2023-03-17T14:58:08;36.45;;;18.15;;
75087;SDS011;63664;44.868;40.600;2023-03-17T15:00:52;37.88;;;17.67;;
75087;SDS011;63664;44.868;40.600;2023-03-17T15:03:38;38.22;;;17.80;;
75087;SDS011;63664;44.868;40.600;2023-03-17T15:06:26;86.45;;;35.13;;
75087;SDS011;63664;44.868;40.600;2023-03-17T15:09:00;65.38;;;29.35;;
75087;SDS011;63664;44.868;40.600;2023-03-17T15:11:48;38.95;;;19.48;;
75087;SDS011;63664;44.868;40.600;2023-03-17T15:16:56;44.17;;;22.95;;
75087;SDS011;63664;44.868;40.600;2023-03-17T15:21:52;57.15;;;28.83;;
75087;SDS011;63664;44.868;40.600;2023-03-17T15:24:34;42.15;;;21.13;;
75087;SDS011;63664;44.868;40.600;2023-03-17T15:27:14;38.95;;;20.38;;
75087;SDS011;63664;44.868;40.600;2023-03-17T15:29:43;61.17;;;32.55;;
75087;SDS011;63664;44.868;40.600;2023-03-17T15:34:47;36.35;;;19.70;;
75087;SDS011;63664;44.868;40.600;2023-03-17T15:37:20;40.25;;;19.75;;
75087;SDS011;63664;44.868;40.600;2023-03-17T15:39:51;37.03;;;18.98;;
75087;SDS011;63664;44.868;40.600;2023-03-17T15:42:20;41.38;;;21.08;;
75087;SDS011;63664;44.868;40.600;2023-03-17T15:52:48;68.45;;;31.48;;
75087;SDS011;63664;44.868;40.600;2023-03-17T15:55:24;61.53;;;30.35;;
75087;SDS011;63664;44.868;40.600;2023-03-17T15:57:55;51.75;;;28.00;;
75087;SDS011;63664;44.868;40.600;2023-03-17T16:00:24;68.60;;;32.67;;
75087;SDS011;63664;44.868;40.600;2023-03-17T16:02:54;63.88;;;30.80;;
75087;SDS011;63664;44.868;40.600;2023-03-17T16:05:28;67.13;;;31.85;;
75087;SDS011;63664;44.868;40.600;2023-03-17T16:07:57;58.30;;;28.70;;
75087;SDS011;63664;44.868;40.600;2023-03-17T16:10:30;52.75;;;24.70;;
75087;SDS011;63664;44.868;40.600;2023-03-17T16:12:58;57.67;;;25.55;;
75087;SDS011;63664;44.868;40.600;2023-03-17T16:15:30;57.55;;;26.58;;
75087;SDS011;63664;44.868;40.600;2023-03-17T16:18:02;55.42;;;25.25;;
75087;SDS011;63664;44.868;40.600;2023-03-17T16:25:40;57.08;;;23.67;;
75087;SDS011;63664;44.868;40.600;2023-03-17T16:28:17;54.38;;;24.23;;
75087;SDS011;63664;44.868;40.600;2023-03-17T16:30:46;50.95;;;24.63;;
75087;SDS011;63664;44.868;40.600;2023-03-17T16:33:18;59.83;;;26.25;;
75087;SDS011;63664;44.868;40.600;2023-03-17T16:35:57;74.43;;;27.65;;
75087;SDS011;63664;44.868;40.600;2023-03-17T16:38:28;70.13;;;25.83;;
75087;SDS011;63664;44.868;40.600;2023-03-17T16:40:58;74.57;;;26.85;;
75087;SDS011;63664;44.868;40.600;2023-03-17T16:43:27;86.72;;;29.33;;
75087;SDS011;63664;44.868;40.600;2023-03-17T16:45:56;96.13;;;35.38;;
75087;SDS011;63664;44.868;40.600;2023-03-17T16:48:27;51.95;;;23.60;;
75087;SDS011;63664;44.868;40.600;2023-03-17T16:50:56;58.83;;;24.27;;
75087;SDS011;63664;44.868;40.600;2023-03-17T16:53:26;55.80;;;23.95;;
75087;SDS011;63664;44.868;40.600;2023-03-17T16:55:55;57.90;;;25.55;;
75087;SDS011;63664;44.868;40.600;2023-03-17T16:58:22;56.22;;;24.48;;
75087;SDS011;63664;44.868;40.600;2023-03-17T17:00:56;52.22;;;24.17;;
75087;SDS011;63664;44.868;40.600;2023-03-17T17:03:26;54.85;;;24.90;;
75087;SDS011;63664;44.868;40.600;2023-03-17T17:05:56;58.45;;;25.98;;
75087;SDS011;63664;44.868;40.600;2023-03-17T17:08:23;58.05;;;26.30;;
75087;SDS011;63664;44.868;40.600;2023-03-17T17:10:50;56.47;;;24.33;;
75087;SDS011;63664;44.868;40.600;2023-03-17T17:13:16;59.80;;;27.05;;
75087;SDS011;63664;44.868;40.600;2023-03-17T17:15:46;58.40;;;25.67;;
75087;SDS011;63664;44.868;40.600;2023-03-17T17:18:17;71.47;;;29.23;;
75087;SDS011;63664;44.868;40.600;2023-03-17T17:23:23;63.17;;;28.02;;
75087;SDS011;63664;44.868;40.600;2023-03-17T17:25:53;56.03;;;25.92;;
75087;SDS011;63664;44.868;40.600;2023-03-17T17:28:21;58.05;;;27.00;;
75087;SDS011;63664;44.868;40.600;2023-03-17T17:30:49;57.05;;;27.52;;
75087;SDS011;63664;44.868;40.600;2023-03-17T17:35:48;54.53;;;24.05;;
75087;SDS011;63664;44.868;40.600;2023-03-17T17:38:16;64.22;;;25.23;;
75087;SDS011;63664;44.868;40.600;2023-03-17T17:40:54;49.95;;;23.48;;
75087;SDS011;63664;44.868;40.600;2023-03-17T17:43:24;52.78;;;24.65;;
75087;SDS011;63664;44.868;40.600;2023-03-17T17:45:50;55.80;;;25.67;;
75087;SDS011;63664;44.868;40.600;2023-03-17T17:48:18;67.72;;;26.52;;
75087;SDS011;63664;44.868;40.600;2023-03-17T17:50:50;58.63;;;25.27;;
75087;SDS011;63664;44.868;40.600;2023-03-17T17:53:18;52.60;;;25.55;;
75087;SDS011;63664;44.868;40.600;2023-03-17T17:55:46;59.10;;;24.13;;
75087;SDS011;63664;44.868;40.600;2023-03-17T17:58:13;59.65;;;25.73;;
75087;SDS011;63664;44.868;40.600;2023-03-17T18:00:42;57.17;;;25.17;;
75087;SDS011;63664;44.868;40.600;2023-03-17T18:03:08;56.58;;;25.73;;
75087;SDS011;63664;44.868;40.600;2023-03-17T18:05:37;55.50;;;24.88;;
75087;SDS011;63664;44.868;40.600;2023-03-17T18:08:04;57.33;;;23.70;;
75087;SDS011;63664;44.868;40.600;2023-03-17T18:10:31;50.03;;;23.40;;
75087;SDS011;63664;44.868;40.600;2023-03-17T18:13:00;56.60;;;25.40;;
75087;SDS011;63664;44.868;40.600;2023-03-17T18:15:26;64.30;;;27.10;;
75087;SDS011;63664;44.868;40.600;2023-03-17T18:17:53;59.88;;;27.42;;
75087;SDS011;63664;44.868;40.600;2023-03-17T18:20:20;58.83;;;27.48;;
75087;SDS011;63664;44.868;40.600;2023-03-17T18:22:50;59.95;;;25.50;;
75087;SDS011;63664;44.868;40.600;2023-03-17T18:25:19;60.65;;;24.05;;
75087;SDS011;63664;44.868;40.600;2023-03-17T18:27:46;53.65;;;25.55;;
75087;SDS011;63664;44.868;40.600;2023-03-17T18:30:18;54.83;;;24.90;;
75087;SDS011;63664;44.868;40.600;2023-03-17T18:32:54;52.90;;;24.80;;
75087;SDS011;63664;44.868;40.600;2023-03-17T18:35:27;59.35;;;25.27;;
75087;SDS011;63664;44.868;40.600;2023-03-17T18:37:55;65.32;;;26.55;;
75087;SDS011;63664;44.868;40.600;2023-03-17T18:40:23;54.72;;;26.00;;
75087;SDS011;63664;44.868;40.600;2023-03-17T18:42:50;61.75;;;27.60;;
75087;SDS011;63664;44.868;40.600;2023-03-17T18:45:20;62.72;;;27.15;;
75087;SDS011;63664;44.868;40.600;2023-03-17T18:47:47;60.33;;;26.48;;
75087;SDS011;63664;44.868;40.600;2023-03-17T18:50:14;62.97;;;28.80;;
75087;SDS011;63664;44.868;40.600;2023-03-17T18:52:46;60.40;;;27.73;;
75087;SDS011;63664;44.868;40.600;2023-03-17T18:55:13;58.90;;;26.73;;
75087;SDS011;63664;44.868;40.600;2023-03-17T18:57:40;62.92;;;27.35;;
75087;SDS011;63664;44.868;40.600;2023-03-17T19:00:08;65.18;;;27.65;;
75087;SDS011;63664;44.868;40.600;2023-03-17T19:02:36;59.45;;;27.48;;
75087;SDS011;63664;44.868;40.600;2023-03-17T19:05:03;59.08;;;26.05;;
75087;SDS011;63664;44.868;40.600;2023-03-17T19:07:32;61.80;;;28.08;;
75087;SDS011;63664;44.868;40.600;2023-03-17T19:10:00;56.22;;;27.58;;
75087;SDS011;63664;44.868;40.600;2023-03-17T19:12:27;63.53;;;28.80;;